createdAt,value
2023-04-02T00:02:21.812Z,9.00
2023-04-02T00:05:31.694Z,9.10
2023-04-02T00:08:41.032Z,9.10
2023-04-02T00:11:37.443Z,9.00
2023-04-02T00:14:25.072Z,9.00
2023-04-02T00:17:10.927Z,9.00
2023-04-02T00:20:07.410Z,9.00
2023-04-02T00:22:55.661Z,9.00
2023-04-02T00:25:49.620Z,9.00
2023-04-02T00:28:35.361Z,9.00
2023-04-02T00:31:21.576Z,9.00
2023-04-02T00:34:13.600Z,9.00
2023-04-02T00:36:59.583Z,9.00
2023-04-02T00:39:48.864Z,8.90
2023-04-02T00:42:35.895Z,8.80
2023-04-02T00:45:21.688Z,8.80
2023-04-02T00:48:39.841Z,8.80
2023-04-02T00:51:35.423Z,8.70
2023-04-02T00:54:26.209Z,8.70
2023-04-02T00:57:18.164Z,8.70
2023-04-02T01:00:21.961Z,8.70
2023-04-02T01:03:16.815Z,8.70
2023-04-02T01:06:11.406Z,8.70
2023-04-02T01:09:15.252Z,8.70
2023-04-02T01:12:08.347Z,8.60
2023-04-02T01:14:58.939Z,8.60
2023-04-02T01:17:59.400Z,8.60
2023-04-02T01:21:07.144Z,8.60
2023-04-02T01:24:10.792Z,8.60
2023-04-02T01:26:58.761Z,8.60
2023-04-02T01:29:51.925Z,8.50
2023-04-02T01:32:37.873Z,8.50
2023-04-02T01:35:26.070Z,8.50
2023-04-02T01:38:18.946Z,8.40
2023-04-02T01:41:45.271Z,8.40
2023-04-02T01:44:45.416Z,8.30
2023-04-02T01:47:33.332Z,8.30
2023-04-02T01:50:31.672Z,8.30
2023-04-02T01:53:24.417Z,8.30
2023-04-02T01:56:11.368Z,8.30
2023-04-02T01:58:58.674Z,8.20
2023-04-02T02:01:58.861Z,8.30
2023-04-02T02:04:44.692Z,8.20
2023-04-02T02:07:30.814Z,8.20
2023-04-02T02:10:23.433Z,8.20
2023-04-02T02:13:14.875Z,8.20
2023-04-02T02:16:02.068Z,8.20
2023-04-02T02:19:11.607Z,8.20
2023-04-02T02:22:37.705Z,8.10
2023-04-02T02:25:31.089Z,8.10
2023-04-02T02:28:33.808Z,8.10
2023-04-02T02:31:29.572Z,8.10
2023-04-02T02:34:25.878Z,8.00
2023-04-02T02:37:19.100Z,8.10
2023-04-02T02:40:11.700Z,8.10
2023-04-02T02:43:01.616Z,8.00
2023-04-02T02:45:48.887Z,8.00
2023-04-02T02:48:38.555Z,8.00
2023-04-02T02:51:32.289Z,8.00
2023-04-02T02:54:21.606Z,8.00
2023-04-02T02:57:14.332Z,8.00
2023-04-02T03:00:01.668Z,7.90
2023-04-02T03:02:50.026Z,7.90
2023-04-02T03:05:39.200Z,7.90
2023-04-02T03:09:01.748Z,7.90
2023-04-02T03:12:04.013Z,7.90
2023-04-02T03:15:02.921Z,7.80
2023-04-02T03:18:00.732Z,7.80
2023-04-02T03:20:58.333Z,7.80
2023-04-02T03:23:53.405Z,7.70
2023-04-02T03:26:43.615Z,7.70
2023-04-02T03:29:32.177Z,7.70
2023-04-02T03:32:23.408Z,7.60
2023-04-02T03:35:31.002Z,7.60
2023-04-02T03:38:22.757Z,7.70
2023-04-02T03:41:35.009Z,7.60
2023-04-02T03:44:27.737Z,7.60
2023-04-02T03:47:28.294Z,7.60
2023-04-02T03:50:40.478Z,7.60
2023-04-02T03:53:32.304Z,7.60
2023-04-02T03:56:42.558Z,7.60
2023-04-02T03:59:47.356Z,7.50
2023-04-02T04:02:52.799Z,7.50
2023-04-02T04:06:02.168Z,7.50
2023-04-02T04:08:58.012Z,7.50
2023-04-02T04:12:01.278Z,7.50
2023-04-02T04:15:17.077Z,7.40
2023-04-02T04:18:24.473Z,7.40
2023-04-02T04:21:37.154Z,7.40
2023-04-02T04:24:32.595Z,7.40
2023-04-02T04:27:34.805Z,7.40
2023-04-02T04:30:42.586Z,7.40
2023-04-02T04:33:39.905Z,7.40
2023-04-02T04:36:30.708Z,7.30
2023-04-02T04:39:35.864Z,7.20
2023-04-02T04:42:27.633Z,7.20
2023-04-02T04:45:46.713Z,7.10
2023-04-02T04:48:59.236Z,7.10
2023-04-02T04:52:01.009Z,7.10
2023-04-02T04:54:47.795Z,7.10
2023-04-02T04:57:39.886Z,7.00
2023-04-02T05:00:58.710Z,7.00
2023-04-02T05:04:28.375Z,7.00
2023-04-02T05:07:29.398Z,6.90
2023-04-02T05:10:48.175Z,6.90
2023-04-02T05:13:54.413Z,6.90
2023-04-02T05:16:53.245Z,6.90
2023-04-02T05:19:50.618Z,6.80
2023-04-02T05:22:48.689Z,6.80
2023-04-02T05:25:36.825Z,6.80
2023-04-02T05:28:52.711Z,6.80
2023-04-02T05:31:46.710Z,6.80
2023-04-02T05:34:37.376Z,6.70
2023-04-02T05:37:28.296Z,6.70
2023-04-02T05:40:36.400Z,6.70
2023-04-02T05:43:30.218Z,6.70
2023-04-02T05:46:25.781Z,6.70
2023-04-02T05:49:42.276Z,6.70
2023-04-02T05:52:34.712Z,6.60
2023-04-02T05:55:30.321Z,6.60
2023-04-02T05:58:36.159Z,6.50
2023-04-02T06:01:51.456Z,6.60
2023-04-02T06:05:06.275Z,6.50
2023-04-02T06:07:57.947Z,6.50
2023-04-02T06:11:06.491Z,6.40
2023-04-02T06:13:53.744Z,6.40
2023-04-02T06:16:45.905Z,6.30
2023-04-02T06:19:37.447Z,6.30
2023-04-02T06:22:36.842Z,6.20
2023-04-02T06:25:44.730Z,6.20
2023-04-02T06:28:53.211Z,6.20
2023-04-02T06:31:58.472Z,6.10
2023-04-02T06:34:45.433Z,6.10
2023-04-02T06:37:40.713Z,6.00
2023-04-02T06:40:39.618Z,6.00
2023-04-02T06:43:38.603Z,6.00
2023-04-02T06:46:47.213Z,6.00
2023-04-02T06:49:51.334Z,5.90
2023-04-02T06:52:47.437Z,5.90
2023-04-02T06:55:54.417Z,5.90
2023-04-02T06:58:44.380Z,5.90
2023-04-02T07:01:33.012Z,5.90
2023-04-02T07:04:21.944Z,6.00
2023-04-02T07:07:09.922Z,5.90
2023-04-02T07:09:58.894Z,6.00
2023-04-02T07:12:44.566Z,6.00
2023-04-02T07:15:30.085Z,6.00
2023-04-02T07:18:29.764Z,6.00
2023-04-02T07:21:16.057Z,6.00
2023-04-02T07:24:01.345Z,6.00
2023-04-02T07:26:50.345Z,6.00
2023-04-02T07:29:35.820Z,6.00
2023-04-02T07:32:21.188Z,6.00
2023-04-02T07:35:07.823Z,6.10
2023-04-02T07:37:53.581Z,6.00
2023-04-02T07:40:39.179Z,6.00
2023-04-02T07:43:27.298Z,6.00
2023-04-02T07:46:20.625Z,6.00
2023-04-02T07:49:05.983Z,5.90
2023-04-02T07:51:52.326Z,6.00
2023-04-02T07:54:38.233Z,6.10
2023-04-02T07:57:27.463Z,6.10
2023-04-02T08:00:13.717Z,6.20
2023-04-02T08:02:59.119Z,6.20
2023-04-02T08:05:51.344Z,6.30
2023-04-02T08:08:36.625Z,6.40
2023-04-02T08:11:22.106Z,6.40
2023-04-02T08:14:11.351Z,6.40
2023-04-02T08:16:57.381Z,6.50
2023-04-02T08:19:54.214Z,6.50
2023-04-02T08:22:40.302Z,6.50
2023-04-02T08:25:27.460Z,6.50
2023-04-02T08:28:13.771Z,6.40
2023-04-02T08:30:59.647Z,6.40
2023-04-02T08:33:45.035Z,6.40
2023-04-02T08:36:35.695Z,6.30
2023-04-02T08:39:21.517Z,6.30
2023-04-02T08:42:18.840Z,6.30
2023-04-02T08:45:42.374Z,6.30
2023-04-02T08:48:31.416Z,6.30
2023-04-02T08:51:30.939Z,6.50
2023-04-02T08:54:29.678Z,6.40
2023-04-02T08:57:43.546Z,6.60
2023-04-02T09:00:44.679Z,6.60
2023-04-02T09:03:44.517Z,6.60
2023-04-02T09:06:30.319Z,6.70
2023-04-02T09:09:16.758Z,6.80
2023-04-02T09:12:04.621Z,6.90
2023-04-02T09:14:59.056Z,7.00
2023-04-02T09:17:53.676Z,7.10
2023-04-02T09:20:40.088Z,7.10
2023-04-02T09:23:27.445Z,7.20
2023-04-02T09:26:25.330Z,7.30
2023-04-02T09:29:14.090Z,7.50
2023-04-02T09:32:13.189Z,7.50
2023-04-02T09:35:39.590Z,7.50
2023-04-02T09:38:30.721Z,7.10
2023-04-02T09:41:20.972Z,6.90
2023-04-02T09:47:32.317Z,6.60
2023-04-02T09:50:22.995Z,6.50
2023-04-02T09:53:30.945Z,6.50
2023-04-02T09:56:24.941Z,6.50
2023-04-02T09:59:13.524Z,6.50
2023-04-02T10:02:01.996Z,6.50
2023-04-02T10:04:49.593Z,6.50
2023-04-02T10:07:44.118Z,6.50
2023-04-02T10:10:41.886Z,6.50
2023-04-02T10:13:43.174Z,6.60
2023-04-02T10:16:37.510Z,6.70
2023-04-02T10:19:37.572Z,6.70
2023-04-02T10:22:23.756Z,6.80
2023-04-02T10:25:17.219Z,6.90
2023-04-02T10:28:13.102Z,7.00
2023-04-02T10:31:09.040Z,7.20
2023-04-02T10:34:06.539Z,7.30
2023-04-02T10:36:59.048Z,7.40
2023-04-02T10:39:49.848Z,7.60
2023-04-02T10:42:49.415Z,7.70
2023-04-02T10:45:46.429Z,7.80
2023-04-02T10:48:48.848Z,8.00
2023-04-02T10:51:46.200Z,8.10
2023-04-02T10:54:38.710Z,8.10
2023-04-02T10:57:33.606Z,8.30
2023-04-02T11:00:25.926Z,8.40
2023-04-02T11:03:25.004Z,8.50
2023-04-02T11:06:31.320Z,8.70
2023-04-02T11:09:26.772Z,8.80
2023-04-02T11:12:20.110Z,9.00
2023-04-02T11:15:15.155Z,9.20
2023-04-02T11:18:01.243Z,9.50
2023-04-02T11:21:04.627Z,9.70
2023-04-02T11:24:03.325Z,9.90
2023-04-02T11:26:49.506Z,10.40
2023-04-02T11:29:56.845Z,10.80
2023-04-02T11:32:47.253Z,11.40
2023-04-02T11:35:34.939Z,12.10
2023-04-02T11:38:23.401Z,12.70
2023-04-02T11:41:16.837Z,13.20
2023-04-02T11:44:02.725Z,14.00
2023-04-02T11:46:48.234Z,14.70
2023-04-02T11:49:56.485Z,15.20
2023-04-02T11:52:47.849Z,15.70
2023-04-02T11:55:35.163Z,16.50
2023-04-02T11:58:41.909Z,17.00
2023-04-02T12:01:50.504Z,17.60
2023-04-02T12:04:57.184Z,18.20
2023-04-02T12:08:05.206Z,18.90
2023-04-02T12:11:01.307Z,19.30
2023-04-02T12:13:48.317Z,19.80
2023-04-02T12:16:42.030Z,20.10
2023-04-02T12:19:30.536Z,20.40
2023-04-02T12:22:25.116Z,20.70
2023-04-02T12:25:33.247Z,21.00
2023-04-02T12:28:19.568Z,21.50
2023-04-02T12:31:17.633Z,21.70
2023-04-02T12:34:03.095Z,22.00
2023-04-02T12:37:02.658Z,22.70
2023-04-02T12:39:54.185Z,23.40
2023-04-02T12:42:40.786Z,23.60
2023-04-02T12:45:36.616Z,24.00
2023-04-02T12:48:22.780Z,24.60
2023-04-02T12:51:10.057Z,25.10
2023-04-02T12:53:57.206Z,25.40
2023-04-02T12:56:45.534Z,25.70
2023-04-02T12:59:39.798Z,25.90
2023-04-02T13:02:27.831Z,26.40
2023-04-02T13:05:13.737Z,26.50
2023-04-02T13:11:03.868Z,26.70
2023-04-02T13:13:50.627Z,26.80
2023-04-02T13:16:41.022Z,26.90
2023-04-02T13:19:36.206Z,27.20
2023-04-02T13:22:31.551Z,27.80
2023-04-02T13:25:16.863Z,28.30
2023-04-02T13:28:03.011Z,28.70
2023-04-02T13:30:49.003Z,28.70
2023-04-02T13:33:40.067Z,28.80
2023-04-02T13:36:26.317Z,29.50
2023-04-02T13:39:11.616Z,29.40
2023-04-02T13:42:02.570Z,29.20
2023-04-02T13:44:48.139Z,29.60
2023-04-02T13:47:33.603Z,30.20
2023-04-02T13:50:22.316Z,30.40
2023-04-02T13:53:13.285Z,30.30
2023-04-02T13:55:59.033Z,30.30
2023-04-02T13:58:48.988Z,30.30
2023-04-02T14:01:35.708Z,30.20
2023-04-02T14:04:27.280Z,30.20
2023-04-02T14:07:37.739Z,30.30
2023-04-02T14:10:37.145Z,30.40
2023-04-02T14:13:22.637Z,30.80
2023-04-02T14:16:32.934Z,31.10
2023-04-02T14:19:33.124Z,31.30
2023-04-02T14:22:44.897Z,31.70
2023-04-02T14:25:51.908Z,31.80
2023-04-02T14:29:01.683Z,31.50
2023-04-02T14:31:53.822Z,31.40
2023-04-02T14:35:20.774Z,31.20
2023-04-02T14:38:36.726Z,31.70
2023-04-02T14:41:49.580Z,32.30
2023-04-02T14:44:44.565Z,32.10
2023-04-02T14:47:36.637Z,32.00
2023-04-02T14:50:29.031Z,32.00
2023-04-02T14:53:29.038Z,32.00
2023-04-02T14:56:17.932Z,32.40
2023-04-02T14:59:29.085Z,32.60
2023-04-02T15:02:38.415Z,32.20
2023-04-02T15:05:42.456Z,31.80
2023-04-02T15:08:34.893Z,31.80
2023-04-02T15:11:48.066Z,32.00
2023-04-02T15:14:38.635Z,32.20
2023-04-02T15:17:25.725Z,32.20
2023-04-02T15:20:16.962Z,31.90
2023-04-02T15:23:18.638Z,32.00
2023-04-02T15:26:18.725Z,32.20
2023-04-02T15:29:25.893Z,32.00
2023-04-02T15:32:35.002Z,32.20
2023-04-02T15:35:39.436Z,32.00
2023-04-02T15:38:38.005Z,31.80
2023-04-02T15:41:27.531Z,31.80
2023-04-02T15:44:17.063Z,31.60
2023-04-02T15:47:46.464Z,31.60
2023-04-02T15:50:54.622Z,31.40
2023-04-02T15:53:55.835Z,31.50
2023-04-02T15:57:16.450Z,31.40
2023-04-02T16:00:23.092Z,31.40
2023-04-02T16:03:20.935Z,31.20
2023-04-02T16:06:17.110Z,31.20
2023-04-02T16:09:28.184Z,30.90
2023-04-02T16:12:19.502Z,31.00
2023-04-02T16:15:30.627Z,30.70
2023-04-02T16:18:44.258Z,30.50
2023-04-02T16:21:35.526Z,30.60
2023-04-02T16:24:23.485Z,30.40
2023-04-02T16:27:31.636Z,30.20
2023-04-02T16:30:49.090Z,30.20
2023-04-02T16:33:34.782Z,29.90
2023-04-02T16:36:33.655Z,29.80
2023-04-02T16:39:39.172Z,29.70
2023-04-02T16:42:51.555Z,29.40
2023-04-02T16:46:11.929Z,29.20
2023-04-02T16:49:24.663Z,28.80
2023-04-02T16:52:29.578Z,28.60
2023-04-02T16:55:34.756Z,28.40
2023-04-02T16:58:49.315Z,28.10
2023-04-02T17:01:54.760Z,27.80
2023-04-02T17:04:55.900Z,27.60
2023-04-02T17:08:05.864Z,27.30
2023-04-02T17:10:53.980Z,27.10
2023-04-02T17:13:55.187Z,27.00
2023-04-02T17:16:50.459Z,26.80
2023-04-02T17:19:35.907Z,26.70
2023-04-02T17:22:23.452Z,26.80
2023-04-02T17:25:19.126Z,27.00
2023-04-02T17:28:12.539Z,27.40
2023-04-02T17:31:00.789Z,27.40
2023-04-02T17:33:53.809Z,27.30
2023-04-02T17:36:48.952Z,26.70
2023-04-02T17:40:01.386Z,25.80
2023-04-02T17:43:01.500Z,24.70
2023-04-02T17:45:55.415Z,23.80
2023-04-02T17:48:46.313Z,23.00
2023-04-02T17:51:59.604Z,22.10
2023-04-02T17:55:07.214Z,21.30
2023-04-02T17:58:01.350Z,20.30
2023-04-02T18:01:12.193Z,19.60
2023-04-02T18:04:21.962Z,18.80
2023-04-02T18:07:16.422Z,17.90
2023-04-02T18:10:15.284Z,17.00
2023-04-02T18:13:24.133Z,15.80
2023-04-02T18:16:38.494Z,14.70
2023-04-02T18:19:46.343Z,13.90
2023-04-02T18:22:34.924Z,13.20
2023-04-02T18:25:32.528Z,12.70
2023-04-02T18:28:32.731Z,12.20
2023-04-02T18:31:50.412Z,11.80
2023-04-02T18:34:54.102Z,11.50
2023-04-02T18:37:48.151Z,11.10
2023-04-02T18:41:09.300Z,10.80
2023-04-02T18:43:55.845Z,10.60
2023-04-02T18:46:56.613Z,10.30
2023-04-02T18:49:52.036Z,10.10
2023-04-02T18:52:39.577Z,9.90
2023-04-02T18:55:29.012Z,9.70
2023-04-02T18:58:43.105Z,9.60
2023-04-02T19:01:52.212Z,9.40
2023-04-02T19:04:39.664Z,9.30
2023-04-02T19:07:30.172Z,9.20
2023-04-02T19:10:53.420Z,9.10
2023-04-02T19:13:39.045Z,9.00
2023-04-02T19:16:53.468Z,8.90
2023-04-02T19:20:25.529Z,8.80
2023-04-02T19:23:22.788Z,8.70
2023-04-02T19:26:17.573Z,8.60
2023-04-02T19:29:09.055Z,8.50
2023-04-02T19:32:11.344Z,8.40
2023-04-02T19:35:23.027Z,8.30
2023-04-02T19:38:27.066Z,8.30
2023-04-02T19:41:42.207Z,8.20
2023-04-02T19:44:27.991Z,8.10
2023-04-02T19:47:14.760Z,8.00
2023-04-02T19:50:00.434Z,8.00
2023-04-02T19:52:45.941Z,8.00
2023-04-02T19:55:31.346Z,7.90
2023-04-02T19:58:28.688Z,7.90
2023-04-02T20:01:14.771Z,7.80
2023-04-02T20:04:00.659Z,7.70
2023-04-02T20:06:46.033Z,7.70
2023-04-02T20:09:31.667Z,7.70
2023-04-02T20:12:17.515Z,7.60
2023-04-02T20:15:04.319Z,7.60
2023-04-02T20:17:49.754Z,7.60
2023-04-02T20:20:35.610Z,7.50
2023-04-02T20:23:21.509Z,7.50
2023-04-02T20:26:07.833Z,7.50
2023-04-02T20:28:53.152Z,7.50
2023-04-02T20:31:38.775Z,7.40
2023-04-02T20:34:24.788Z,7.40
2023-04-02T20:37:10.449Z,7.40
2023-04-02T20:39:57.739Z,7.40
2023-04-02T20:42:46.030Z,7.40
2023-04-02T20:45:31.505Z,7.40
2023-04-02T20:48:17.029Z,7.40
2023-04-02T20:51:07.399Z,7.40
2023-04-02T20:53:53.931Z,7.30
2023-04-02T20:56:39.852Z,7.30
2023-04-02T20:59:25.695Z,7.30
2023-04-02T21:02:12.301Z,7.20
2023-04-02T21:04:57.713Z,7.20
2023-04-02T21:07:44.070Z,7.20
2023-04-02T21:10:31.217Z,7.20
2023-04-02T21:13:16.953Z,7.20
2023-04-02T21:16:05.144Z,7.10
2023-04-02T21:18:52.739Z,7.10
2023-04-02T21:21:41.380Z,7.10
2023-04-02T21:24:26.944Z,7.00
2023-04-02T21:27:12.558Z,7.00
2023-04-02T21:29:57.784Z,7.00
2023-04-02T21:32:43.610Z,6.90
2023-04-02T21:35:28.867Z,6.90
2023-04-02T21:38:14.304Z,6.80
2023-04-02T21:41:13.399Z,6.80
2023-04-02T21:44:00.344Z,6.80
2023-04-02T21:46:46.058Z,6.80
2023-04-02T21:49:31.517Z,6.70
2023-04-02T21:52:17.158Z,6.70
2023-04-02T21:55:02.740Z,6.60
2023-04-02T21:57:48.578Z,6.60
2023-04-02T22:00:37.098Z,6.60
2023-04-02T22:03:30.920Z,6.50
2023-04-02T22:06:21.655Z,6.60
2023-04-02T22:09:13.338Z,6.50
2023-04-02T22:11:59.031Z,6.50
2023-04-02T22:14:44.947Z,6.50
2023-04-02T22:17:30.386Z,6.50
2023-04-02T22:20:21.479Z,6.40
2023-04-02T22:23:10.804Z,6.40
2023-04-02T22:25:58.157Z,6.30
2023-04-02T22:28:43.758Z,6.30
2023-04-02T22:31:31.281Z,6.20
2023-04-02T22:34:17.282Z,6.20
2023-04-02T22:37:02.557Z,6.20
2023-04-02T22:39:48.502Z,6.10
2023-04-02T22:42:34.608Z,6.10
2023-04-02T22:45:21.483Z,6.10
2023-04-02T22:48:09.945Z,6.00
2023-04-02T22:50:55.796Z,5.90
2023-04-02T22:53:42.858Z,5.90
2023-04-02T22:56:32.296Z,5.90
2023-04-02T22:59:17.864Z,5.80
2023-04-02T23:02:03.565Z,5.80
2023-04-02T23:04:49.046Z,5.80
2023-04-02T23:07:38.191Z,5.70
2023-04-02T23:10:24.133Z,5.60
2023-04-02T23:13:16.063Z,5.50
2023-04-02T23:16:02.913Z,5.50
2023-04-02T23:18:49.007Z,5.50
2023-04-02T23:21:34.450Z,5.40
2023-04-02T23:24:20.209Z,5.40
2023-04-02T23:27:05.494Z,5.40
2023-04-02T23:29:52.157Z,5.40
2023-04-02T23:32:37.735Z,5.30
2023-04-02T23:35:23.287Z,5.30
2023-04-02T23:38:08.784Z,5.30
2023-04-02T23:40:54.443Z,5.30
2023-04-02T23:43:40.541Z,5.20
2023-04-02T23:46:26.757Z,5.20
2023-04-02T23:49:15.513Z,5.10
2023-04-02T23:52:00.713Z,5.10
2023-04-02T23:54:46.271Z,5.10
2023-04-02T23:57:31.608Z,5.10
